sensor_id;sensor_type;location;lat;lon;timestamp;temperature;humidity
32524;DHT22;18965;52.242;20.886;2022-10-16T00:01:23;16.20;71.90
32524;DHT22;18965;52.242;20.886;2022-10-16T00:03:49;16.20;72.00
32524;DHT22;18965;52.242;20.886;2022-10-16T00:06:17;16.30;72.00
32524;DHT22;18965;52.242;20.886;2022-10-16T00:08:43;16.30;72.00
32524;DHT22;18965;52.242;20.886;2022-10-16T00:11:25;16.30;72.10
32524;DHT22;18965;52.242;20.886;2022-10-16T00:13:56;16.30;72.10
32524;DHT22;18965;52.242;20.886;2022-10-16T00:16:23;16.30;72.10
32524;DHT22;18965;52.242;20.886;2022-10-16T00:18:49;16.30;72.10
32524;DHT22;18965;52.242;20.886;2022-10-16T00:21:20;16.30;72.10
32524;DHT22;18965;52.242;20.886;2022-10-16T00:23:46;16.30;72.10
32524;DHT22;18965;52.242;20.886;2022-10-16T00:26:14;16.40;72.20
32524;DHT22;18965;52.242;20.886;2022-10-16T00:28:41;16.40;72.20
32524;DHT22;18965;52.242;20.886;2022-10-16T00:31:09;16.40;72.20
32524;DHT22;18965;52.242;20.886;2022-10-16T00:33:37;16.40;72.20
32524;DHT22;18965;52.242;20.886;2022-10-16T00:36:04;16.40;72.20
32524;DHT22;18965;52.242;20.886;2022-10-16T00:38:31;16.40;72.20
32524;DHT22;18965;52.242;20.886;2022-10-16T00:40:57;16.40;72.10
32524;DHT22;18965;52.242;20.886;2022-10-16T00:43:37;16.40;72.20
32524;DHT22;18965;52.242;20.886;2022-10-16T00:46:10;16.40;72.20
32524;DHT22;18965;52.242;20.886;2022-10-16T00:48:36;16.50;72.20
32524;DHT22;18965;52.242;20.886;2022-10-16T00:51:02;16.40;72.10
32524;DHT22;18965;52.242;20.886;2022-10-16T00:53:29;16.50;72.20
32524;DHT22;18965;52.242;20.886;2022-10-16T00:55:56;16.50;72.10
32524;DHT22;18965;52.242;20.886;2022-10-16T00:58:21;16.50;72.10
32524;DHT22;18965;52.242;20.886;2022-10-16T01:00:47;16.50;72.00
32524;DHT22;18965;52.242;20.886;2022-10-16T01:03:31;16.50;71.80
32524;DHT22;18965;52.242;20.886;2022-10-16T01:06:22;16.50;71.80
32524;DHT22;18965;52.242;20.886;2022-10-16T01:09:23;16.50;71.90
32524;DHT22;18965;52.242;20.886;2022-10-16T01:17:20;16.50;72.40
32524;DHT22;18965;52.242;20.886;2022-10-16T01:22:17;16.50;72.50
32524;DHT22;18965;52.242;20.886;2022-10-16T01:24:48;16.50;72.60
32524;DHT22;18965;52.242;20.886;2022-10-16T01:27:20;16.50;72.60
32524;DHT22;18965;52.242;20.886;2022-10-16T01:30:04;16.50;72.70
32524;DHT22;18965;52.242;20.886;2022-10-16T01:32:43;16.50;72.60
32524;DHT22;18965;52.242;20.886;2022-10-16T01:35:33;16.50;72.60
32524;DHT22;18965;52.242;20.886;2022-10-16T01:38:12;16.50;72.50
32524;DHT22;18965;52.242;20.886;2022-10-16T01:40:42;16.50;72.50
32524;DHT22;18965;52.242;20.886;2022-10-16T01:43:17;16.50;72.40
32524;DHT22;18965;52.242;20.886;2022-10-16T01:45:45;16.40;72.30
32524;DHT22;18965;52.242;20.886;2022-10-16T01:48:18;16.50;72.40
32524;DHT22;18965;52.242;20.886;2022-10-16T01:50:54;16.50;72.30
32524;DHT22;18965;52.242;20.886;2022-10-16T01:53:22;16.40;72.40
32524;DHT22;18965;52.242;20.886;2022-10-16T01:55:49;16.40;72.30
32524;DHT22;18965;52.242;20.886;2022-10-16T01:58:16;16.40;72.20
32524;DHT22;18965;52.242;20.886;2022-10-16T02:00:44;16.40;72.20
32524;DHT22;18965;52.242;20.886;2022-10-16T02:03:13;16.40;72.20
32524;DHT22;18965;52.242;20.886;2022-10-16T02:05:52;16.40;72.20
32524;DHT22;18965;52.242;20.886;2022-10-16T02:08:20;16.40;72.10
32524;DHT22;18965;52.242;20.886;2022-10-16T02:10:46;16.30;71.90
32524;DHT22;18965;52.242;20.886;2022-10-16T02:13:21;16.30;71.90
32524;DHT22;18965;52.242;20.886;2022-10-16T02:15:48;16.30;71.80
32524;DHT22;18965;52.242;20.886;2022-10-16T02:18:14;16.30;71.80
32524;DHT22;18965;52.242;20.886;2022-10-16T02:20:53;16.30;71.80
32524;DHT22;18965;52.242;20.886;2022-10-16T02:23:29;16.30;71.90
32524;DHT22;18965;52.242;20.886;2022-10-16T02:25:58;16.30;71.90
32524;DHT22;18965;52.242;20.886;2022-10-16T02:28:28;16.20;71.90
32524;DHT22;18965;52.242;20.886;2022-10-16T02:31:01;16.20;72.00
32524;DHT22;18965;52.242;20.886;2022-10-16T02:33:29;16.20;72.10
32524;DHT22;18965;52.242;20.886;2022-10-16T02:35:56;16.20;72.10
32524;DHT22;18965;52.242;20.886;2022-10-16T02:38:24;16.10;72.10
32524;DHT22;18965;52.242;20.886;2022-10-16T02:40:50;16.10;72.10
32524;DHT22;18965;52.242;20.886;2022-10-16T02:43:16;16.10;72.10
32524;DHT22;18965;52.242;20.886;2022-10-16T02:45:42;16.10;72.20
32524;DHT22;18965;52.242;20.886;2022-10-16T02:48:08;16.10;72.20
32524;DHT22;18965;52.242;20.886;2022-10-16T02:50:34;16.10;72.20
32524;DHT22;18965;52.242;20.886;2022-10-16T02:53:01;16.10;72.30
32524;DHT22;18965;52.242;20.886;2022-10-16T02:55:28;16.10;72.30
32524;DHT22;18965;52.242;20.886;2022-10-16T02:57:54;16.10;72.30
32524;DHT22;18965;52.242;20.886;2022-10-16T03:00:20;16.10;72.30
32524;DHT22;18965;52.242;20.886;2022-10-16T03:02:46;16.10;72.30
32524;DHT22;18965;52.242;20.886;2022-10-16T03:05:13;16.10;72.30
32524;DHT22;18965;52.242;20.886;2022-10-16T03:07:39;16.10;72.40
32524;DHT22;18965;52.242;20.886;2022-10-16T03:10:05;16.10;72.40
32524;DHT22;18965;52.242;20.886;2022-10-16T03:12:31;16.10;72.40
32524;DHT22;18965;52.242;20.886;2022-10-16T03:14:57;16.10;72.50
32524;DHT22;18965;52.242;20.886;2022-10-16T03:17:23;16.10;72.60
32524;DHT22;18965;52.242;20.886;2022-10-16T03:19:50;16.10;72.60
32524;DHT22;18965;52.242;20.886;2022-10-16T03:22:15;16.00;72.60
32524;DHT22;18965;52.242;20.886;2022-10-16T03:24:41;16.00;72.60
32524;DHT22;18965;52.242;20.886;2022-10-16T03:27:07;16.00;72.70
32524;DHT22;18965;52.242;20.886;2022-10-16T03:29:33;16.00;72.80
32524;DHT22;18965;52.242;20.886;2022-10-16T03:31:59;16.00;72.80
32524;DHT22;18965;52.242;20.886;2022-10-16T03:34:25;16.00;72.90
32524;DHT22;18965;52.242;20.886;2022-10-16T03:36:51;16.00;72.90
32524;DHT22;18965;52.242;20.886;2022-10-16T03:39:18;15.90;72.80
32524;DHT22;18965;52.242;20.886;2022-10-16T03:41:43;15.90;72.80
32524;DHT22;18965;52.242;20.886;2022-10-16T03:44:09;15.90;72.80
32524;DHT22;18965;52.242;20.886;2022-10-16T03:46:35;15.90;72.70
32524;DHT22;18965;52.242;20.886;2022-10-16T03:49:01;15.90;72.80
32524;DHT22;18965;52.242;20.886;2022-10-16T03:51:26;15.90;72.80
32524;DHT22;18965;52.242;20.886;2022-10-16T03:53:55;15.80;72.70
32524;DHT22;18965;52.242;20.886;2022-10-16T03:56:21;15.80;72.70
32524;DHT22;18965;52.242;20.886;2022-10-16T03:58:47;15.80;72.70
32524;DHT22;18965;52.242;20.886;2022-10-16T04:01:13;15.70;72.70
32524;DHT22;18965;52.242;20.886;2022-10-16T04:03:38;15.70;72.70
32524;DHT22;18965;52.242;20.886;2022-10-16T04:06:04;15.60;72.70
32524;DHT22;18965;52.242;20.886;2022-10-16T04:08:30;15.60;72.80
32524;DHT22;18965;52.242;20.886;2022-10-16T04:10:56;15.60;72.90
32524;DHT22;18965;52.242;20.886;2022-10-16T04:13:22;15.60;73.00
32524;DHT22;18965;52.242;20.886;2022-10-16T04:15:47;15.60;73.10
32524;DHT22;18965;52.242;20.886;2022-10-16T04:18:13;15.60;73.20
32524;DHT22;18965;52.242;20.886;2022-10-16T04:20:40;15.60;73.30
32524;DHT22;18965;52.242;20.886;2022-10-16T04:23:06;15.60;73.40
32524;DHT22;18965;52.242;20.886;2022-10-16T04:25:31;15.60;73.40
32524;DHT22;18965;52.242;20.886;2022-10-16T04:27:57;15.60;73.40
32524;DHT22;18965;52.242;20.886;2022-10-16T04:30:24;15.50;73.30
32524;DHT22;18965;52.242;20.886;2022-10-16T04:32:51;15.50;73.40
32524;DHT22;18965;52.242;20.886;2022-10-16T04:35:18;15.50;73.40
32524;DHT22;18965;52.242;20.886;2022-10-16T04:37:44;15.50;73.40
32524;DHT22;18965;52.242;20.886;2022-10-16T04:40:10;15.50;73.40
32524;DHT22;18965;52.242;20.886;2022-10-16T04:42:36;15.50;73.40
32524;DHT22;18965;52.242;20.886;2022-10-16T04:45:02;15.40;73.40
32524;DHT22;18965;52.242;20.886;2022-10-16T04:47:28;15.40;73.40
32524;DHT22;18965;52.242;20.886;2022-10-16T04:49:54;15.40;73.30
32524;DHT22;18965;52.242;20.886;2022-10-16T04:52:20;15.30;73.30
32524;DHT22;18965;52.242;20.886;2022-10-16T04:54:47;15.30;73.20
32524;DHT22;18965;52.242;20.886;2022-10-16T04:57:12;15.20;73.20
32524;DHT22;18965;52.242;20.886;2022-10-16T04:59:38;15.20;73.30
32524;DHT22;18965;52.242;20.886;2022-10-16T05:02:04;15.10;73.30
32524;DHT22;18965;52.242;20.886;2022-10-16T05:04:30;15.10;73.40
32524;DHT22;18965;52.242;20.886;2022-10-16T05:06:56;15.00;73.40
32524;DHT22;18965;52.242;20.886;2022-10-16T05:09:21;15.00;73.50
32524;DHT22;18965;52.242;20.886;2022-10-16T05:11:47;14.90;73.60
32524;DHT22;18965;52.242;20.886;2022-10-16T05:14:13;14.90;73.70
32524;DHT22;18965;52.242;20.886;2022-10-16T05:16:39;14.90;73.80
32524;DHT22;18965;52.242;20.886;2022-10-16T05:19:04;14.80;73.90
32524;DHT22;18965;52.242;20.886;2022-10-16T05:21:30;14.80;74.00
32524;DHT22;18965;52.242;20.886;2022-10-16T05:23:56;14.80;74.00
32524;DHT22;18965;52.242;20.886;2022-10-16T05:26:22;14.80;74.10
32524;DHT22;18965;52.242;20.886;2022-10-16T05:28:49;14.80;74.20
32524;DHT22;18965;52.242;20.886;2022-10-16T05:31:15;14.70;74.40
32524;DHT22;18965;52.242;20.886;2022-10-16T05:33:41;14.70;74.40
32524;DHT22;18965;52.242;20.886;2022-10-16T05:36:08;14.70;74.50
32524;DHT22;18965;52.242;20.886;2022-10-16T05:38:35;14.70;74.60
32524;DHT22;18965;52.242;20.886;2022-10-16T05:41:02;14.70;74.70
32524;DHT22;18965;52.242;20.886;2022-10-16T05:43:29;14.70;74.80
32524;DHT22;18965;52.242;20.886;2022-10-16T05:46:03;14.70;74.80
32524;DHT22;18965;52.242;20.886;2022-10-16T05:48:30;14.70;75.00
32524;DHT22;18965;52.242;20.886;2022-10-16T05:51:03;14.70;74.90
32524;DHT22;18965;52.242;20.886;2022-10-16T05:53:31;14.70;75.00
32524;DHT22;18965;52.242;20.886;2022-10-16T05:55:58;14.70;75.10
32524;DHT22;18965;52.242;20.886;2022-10-16T05:58:25;14.70;75.00
32524;DHT22;18965;52.242;20.886;2022-10-16T06:00:59;14.70;75.00
32524;DHT22;18965;52.242;20.886;2022-10-16T06:03:26;14.70;75.10
32524;DHT22;18965;52.242;20.886;2022-10-16T06:05:52;14.70;75.10
32524;DHT22;18965;52.242;20.886;2022-10-16T06:08:20;14.70;75.10
32524;DHT22;18965;52.242;20.886;2022-10-16T06:10:46;14.70;75.30
32524;DHT22;18965;52.242;20.886;2022-10-16T06:13:13;14.70;75.30
32524;DHT22;18965;52.242;20.886;2022-10-16T06:15:40;14.80;75.40
32524;DHT22;18965;52.242;20.886;2022-10-16T06:18:09;14.80;75.40
32524;DHT22;18965;52.242;20.886;2022-10-16T06:20:36;14.80;75.40
32524;DHT22;18965;52.242;20.886;2022-10-16T06:23:03;14.90;75.50
32524;DHT22;18965;52.242;20.886;2022-10-16T06:25:30;14.90;75.40
32524;DHT22;18965;52.242;20.886;2022-10-16T06:27:57;14.90;75.40
32524;DHT22;18965;52.242;20.886;2022-10-16T06:30:22;15.00;75.40
32524;DHT22;18965;52.242;20.886;2022-10-16T06:32:48;15.00;75.30
32524;DHT22;18965;52.242;20.886;2022-10-16T06:35:14;15.10;75.30
32524;DHT22;18965;52.242;20.886;2022-10-16T06:37:40;15.10;75.20
32524;DHT22;18965;52.242;20.886;2022-10-16T06:40:06;15.20;75.30
32524;DHT22;18965;52.242;20.886;2022-10-16T06:42:32;15.20;75.20
32524;DHT22;18965;52.242;20.886;2022-10-16T06:44:58;15.30;75.20
32524;DHT22;18965;52.242;20.886;2022-10-16T06:47:24;15.30;75.20
32524;DHT22;18965;52.242;20.886;2022-10-16T06:49:49;15.40;75.20
32524;DHT22;18965;52.242;20.886;2022-10-16T06:52:15;15.50;75.20
32524;DHT22;18965;52.242;20.886;2022-10-16T06:54:41;15.60;75.10
32524;DHT22;18965;52.242;20.886;2022-10-16T06:57:07;15.70;75.10
32524;DHT22;18965;52.242;20.886;2022-10-16T06:59:32;15.80;75.10
32524;DHT22;18965;52.242;20.886;2022-10-16T07:01:58;16.00;75.00
32524;DHT22;18965;52.242;20.886;2022-10-16T07:04:24;16.20;74.70
32524;DHT22;18965;52.242;20.886;2022-10-16T07:06:50;16.30;74.40
32524;DHT22;18965;52.242;20.886;2022-10-16T07:09:20;16.50;74.10
32524;DHT22;18965;52.242;20.886;2022-10-16T07:11:45;16.60;73.60
32524;DHT22;18965;52.242;20.886;2022-10-16T07:14:19;16.70;73.30
32524;DHT22;18965;52.242;20.886;2022-10-16T07:16:45;16.70;73.00
32524;DHT22;18965;52.242;20.886;2022-10-16T07:19:11;16.70;72.80
32524;DHT22;18965;52.242;20.886;2022-10-16T07:21:39;16.80;73.50
32524;DHT22;18965;52.242;20.886;2022-10-16T07:24:17;16.80;72.50
32524;DHT22;18965;52.242;20.886;2022-10-16T07:26:46;16.80;72.40
32524;DHT22;18965;52.242;20.886;2022-10-16T07:29:18;16.90;72.30
32524;DHT22;18965;52.242;20.886;2022-10-16T07:31:44;17.00;72.20
32524;DHT22;18965;52.242;20.886;2022-10-16T07:34:14;17.00;72.10
32524;DHT22;18965;52.242;20.886;2022-10-16T07:36:41;17.10;71.80
32524;DHT22;18965;52.242;20.886;2022-10-16T07:39:06;17.20;71.70
32524;DHT22;18965;52.242;20.886;2022-10-16T07:41:32;17.20;71.60
32524;DHT22;18965;52.242;20.886;2022-10-16T07:44:02;17.20;71.40
32524;DHT22;18965;52.242;20.886;2022-10-16T07:46:28;17.30;71.40
32524;DHT22;18965;52.242;20.886;2022-10-16T07:48:54;17.40;71.40
32524;DHT22;18965;52.242;20.886;2022-10-16T07:51:22;17.50;71.30
32524;DHT22;18965;52.242;20.886;2022-10-16T07:53:51;17.70;71.10
32524;DHT22;18965;52.242;20.886;2022-10-16T07:56:23;17.90;70.80
32524;DHT22;18965;52.242;20.886;2022-10-16T07:58:56;18.10;70.50
32524;DHT22;18965;52.242;20.886;2022-10-16T08:01:22;18.20;70.10
32524;DHT22;18965;52.242;20.886;2022-10-16T08:03:50;18.30;70.00
32524;DHT22;18965;52.242;20.886;2022-10-16T08:06:17;18.50;69.90
32524;DHT22;18965;52.242;20.886;2022-10-16T08:08:43;18.50;69.40
32524;DHT22;18965;52.242;20.886;2022-10-16T08:11:11;18.70;69.30
32524;DHT22;18965;52.242;20.886;2022-10-16T08:13:41;18.70;69.10
32524;DHT22;18965;52.242;20.886;2022-10-16T08:16:08;18.80;68.90
32524;DHT22;18965;52.242;20.886;2022-10-16T08:18:40;19.00;68.70
32524;DHT22;18965;52.242;20.886;2022-10-16T08:21:13;19.00;68.40
32524;DHT22;18965;52.242;20.886;2022-10-16T08:23:39;19.10;68.30
32524;DHT22;18965;52.242;20.886;2022-10-16T08:26:06;19.10;68.10
32524;DHT22;18965;52.242;20.886;2022-10-16T08:28:33;19.20;67.90
32524;DHT22;18965;52.242;20.886;2022-10-16T08:31:15;19.30;67.60
32524;DHT22;18965;52.242;20.886;2022-10-16T08:33:43;19.40;67.50
32524;DHT22;18965;52.242;20.886;2022-10-16T08:36:10;19.50;67.40
32524;DHT22;18965;52.242;20.886;2022-10-16T08:38:37;19.50;67.30
32524;DHT22;18965;52.242;20.886;2022-10-16T08:41:32;19.60;67.30
32524;DHT22;18965;52.242;20.886;2022-10-16T08:49:13;19.80;66.70
32524;DHT22;18965;52.242;20.886;2022-10-16T08:51:40;19.90;66.60
32524;DHT22;18965;52.242;20.886;2022-10-16T08:57:14;20.10;66.40
32524;DHT22;18965;52.242;20.886;2022-10-16T08:59:41;20.20;66.20
32524;DHT22;18965;52.242;20.886;2022-10-16T09:15:36;20.80;64.70
32524;DHT22;18965;52.242;20.886;2022-10-16T09:18:34;20.90;64.50
32524;DHT22;18965;52.242;20.886;2022-10-16T09:21:14;20.90;64.30
32524;DHT22;18965;52.242;20.886;2022-10-16T09:23:41;21.00;64.20
32524;DHT22;18965;52.242;20.886;2022-10-16T09:26:12;21.00;64.10
32524;DHT22;18965;52.242;20.886;2022-10-16T09:28:39;21.10;63.90
32524;DHT22;18965;52.242;20.886;2022-10-16T09:31:07;21.10;63.80
32524;DHT22;18965;52.242;20.886;2022-10-16T09:33:37;21.30;63.60
32524;DHT22;18965;52.242;20.886;2022-10-16T09:36:05;21.40;63.40
32524;DHT22;18965;52.242;20.886;2022-10-16T09:38:36;21.40;63.10
32524;DHT22;18965;52.242;20.886;2022-10-16T09:41:03;21.50;62.90
32524;DHT22;18965;52.242;20.886;2022-10-16T09:43:46;21.60;63.10
32524;DHT22;18965;52.242;20.886;2022-10-16T09:49:01;21.70;62.50
32524;DHT22;18965;52.242;20.886;2022-10-16T09:51:33;21.80;62.30
32524;DHT22;18965;52.242;20.886;2022-10-16T09:54:11;21.80;62.10
32524;DHT22;18965;52.242;20.886;2022-10-16T09:56:38;21.80;62.10
32524;DHT22;18965;52.242;20.886;2022-10-16T09:59:14;21.80;61.90
32524;DHT22;18965;52.242;20.886;2022-10-16T10:01:50;21.80;61.80
32524;DHT22;18965;52.242;20.886;2022-10-16T10:04:21;21.90;61.70
32524;DHT22;18965;52.242;20.886;2022-10-16T10:06:49;21.90;61.50
32524;DHT22;18965;52.242;20.886;2022-10-16T10:17:01;22.00;61.30
32524;DHT22;18965;52.242;20.886;2022-10-16T10:19:27;22.10;61.20
32524;DHT22;18965;52.242;20.886;2022-10-16T10:21:53;22.10;61.00
32524;DHT22;18965;52.242;20.886;2022-10-16T10:24:28;22.10;60.90
32524;DHT22;18965;52.242;20.886;2022-10-16T10:27:11;22.10;60.70
32524;DHT22;18965;52.242;20.886;2022-10-16T10:30:01;22.20;60.50
32524;DHT22;18965;52.242;20.886;2022-10-16T10:32:31;22.30;60.40
32524;DHT22;18965;52.242;20.886;2022-10-16T10:35:14;22.30;60.40
32524;DHT22;18965;52.242;20.886;2022-10-16T10:40:56;22.40;60.20
32524;DHT22;18965;52.242;20.886;2022-10-16T10:43:44;22.50;59.90
32524;DHT22;18965;52.242;20.886;2022-10-16T10:52:34;22.50;59.60
32524;DHT22;18965;52.242;20.886;2022-10-16T10:55:39;22.60;59.40
32524;DHT22;18965;52.242;20.886;2022-10-16T10:58:34;22.60;59.40
32524;DHT22;18965;52.242;20.886;2022-10-16T11:01:09;22.60;59.40
32524;DHT22;18965;52.242;20.886;2022-10-16T11:06:51;22.70;59.30
32524;DHT22;18965;52.242;20.886;2022-10-16T11:09:47;22.70;59.20
32524;DHT22;18965;52.242;20.886;2022-10-16T11:12:38;22.70;58.90
32524;DHT22;18965;52.242;20.886;2022-10-16T11:18:07;22.70;58.90
32524;DHT22;18965;52.242;20.886;2022-10-16T11:20:47;22.60;58.90
32524;DHT22;18965;52.242;20.886;2022-10-16T11:23:30;22.60;59.00
32524;DHT22;18965;52.242;20.886;2022-10-16T11:26:02;22.50;58.80
32524;DHT22;18965;52.242;20.886;2022-10-16T11:28:37;22.50;59.00
32524;DHT22;18965;52.242;20.886;2022-10-16T11:31:57;22.50;58.90
32524;DHT22;18965;52.242;20.886;2022-10-16T11:39:45;22.30;59.10
32524;DHT22;18965;52.242;20.886;2022-10-16T11:42:36;22.30;59.40
32524;DHT22;18965;52.242;20.886;2022-10-16T11:48:15;22.50;59.90
32524;DHT22;18965;52.242;20.886;2022-10-16T11:51:06;22.00;59.80
32524;DHT22;18965;52.242;20.886;2022-10-16T11:56:20;22.10;59.70
32524;DHT22;18965;52.242;20.886;2022-10-16T12:08:11;22.10;60.00
32524;DHT22;18965;52.242;20.886;2022-10-16T12:10:46;22.10;60.00
32524;DHT22;18965;52.242;20.886;2022-10-16T12:13:34;22.00;60.00
32524;DHT22;18965;52.242;20.886;2022-10-16T12:16:24;22.00;60.10
32524;DHT22;18965;52.242;20.886;2022-10-16T12:19:12;22.00;60.20
32524;DHT22;18965;52.242;20.886;2022-10-16T12:25:37;22.00;60.30
32524;DHT22;18965;52.242;20.886;2022-10-16T12:28:35;22.00;60.30
32524;DHT22;18965;52.242;20.886;2022-10-16T12:31:22;21.90;60.30
32524;DHT22;18965;52.242;20.886;2022-10-16T12:34:57;21.90;60.30
32524;DHT22;18965;52.242;20.886;2022-10-16T13:47:23;21.10;62.80
32524;DHT22;18965;52.242;20.886;2022-10-16T13:56:15;21.10;63.30
32524;DHT22;18965;52.242;20.886;2022-10-16T14:24:48;21.20;64.10
32524;DHT22;18965;52.242;20.886;2022-10-16T14:30:55;21.20;64.20
32524;DHT22;18965;52.242;20.886;2022-10-16T14:33:52;21.20;64.20
32524;DHT22;18965;52.242;20.886;2022-10-16T14:37:01;21.30;64.30
32524;DHT22;18965;52.242;20.886;2022-10-16T14:39:57;21.20;64.30
32524;DHT22;18965;52.242;20.886;2022-10-16T15:17:30;21.00;65.10
32524;DHT22;18965;52.242;20.886;2022-10-16T15:20:09;20.90;65.20
32524;DHT22;18965;52.242;20.886;2022-10-16T15:26:22;20.80;65.30
32524;DHT22;18965;52.242;20.886;2022-10-16T15:35:08;20.70;65.70
32524;DHT22;18965;52.242;20.886;2022-10-16T15:38:06;20.70;65.80
32524;DHT22;18965;52.242;20.886;2022-10-16T15:41:12;20.60;65.90
32524;DHT22;18965;52.242;20.886;2022-10-16T16:09:09;20.30;66.70
32524;DHT22;18965;52.242;20.886;2022-10-16T16:14:22;20.20;67.00
32524;DHT22;18965;52.242;20.886;2022-10-16T16:17:04;20.10;67.10
32524;DHT22;18965;52.242;20.886;2022-10-16T16:20:11;20.10;67.10
32524;DHT22;18965;52.242;20.886;2022-10-16T16:22:37;20.10;67.30
32524;DHT22;18965;52.242;20.886;2022-10-16T16:25:05;20.00;67.30
32524;DHT22;18965;52.242;20.886;2022-10-16T16:36:55;19.70;67.70
32524;DHT22;18965;52.242;20.886;2022-10-16T16:45:16;19.70;68.40
32524;DHT22;18965;52.242;20.886;2022-10-16T16:51:19;19.60;68.60
32524;DHT22;18965;52.242;20.886;2022-10-16T17:05:42;19.40;69.30
32524;DHT22;18965;52.242;20.886;2022-10-16T17:12:06;19.30;69.40
32524;DHT22;18965;52.242;20.886;2022-10-16T17:14:43;19.20;69.60
32524;DHT22;18965;52.242;20.886;2022-10-16T17:17:11;19.20;69.70
32524;DHT22;18965;52.242;20.886;2022-10-16T17:19:57;19.10;69.80
32524;DHT22;18965;52.242;20.886;2022-10-16T17:22:52;19.10;70.00
32524;DHT22;18965;52.242;20.886;2022-10-16T17:35:24;18.90;70.50
32524;DHT22;18965;52.242;20.886;2022-10-16T17:38:38;18.80;70.80
32524;DHT22;18965;52.242;20.886;2022-10-16T17:41:15;18.90;71.00
32524;DHT22;18965;52.242;20.886;2022-10-16T17:43:56;18.80;71.10
32524;DHT22;18965;52.242;20.886;2022-10-16T17:49:12;18.80;71.40
32524;DHT22;18965;52.242;20.886;2022-10-16T17:51:38;18.70;71.30
32524;DHT22;18965;52.242;20.886;2022-10-16T17:54:04;18.70;71.40
32524;DHT22;18965;52.242;20.886;2022-10-16T17:56:33;18.70;71.50
32524;DHT22;18965;52.242;20.886;2022-10-16T17:59:01;18.70;71.60
32524;DHT22;18965;52.242;20.886;2022-10-16T18:01:32;18.70;71.70
32524;DHT22;18965;52.242;20.886;2022-10-16T18:04:03;18.60;71.80
32524;DHT22;18965;52.242;20.886;2022-10-16T18:06:37;18.60;72.00
32524;DHT22;18965;52.242;20.886;2022-10-16T18:09:11;18.60;72.00
32524;DHT22;18965;52.242;20.886;2022-10-16T18:11:37;18.60;72.10
32524;DHT22;18965;52.242;20.886;2022-10-16T18:14:03;18.60;72.10
32524;DHT22;18965;52.242;20.886;2022-10-16T18:16:29;18.50;72.20
32524;DHT22;18965;52.242;20.886;2022-10-16T18:18:56;18.50;72.30
32524;DHT22;18965;52.242;20.886;2022-10-16T18:21:33;18.50;72.50
32524;DHT22;18965;52.242;20.886;2022-10-16T18:24:02;18.40;72.50
32524;DHT22;18965;52.242;20.886;2022-10-16T18:26:31;18.40;72.60
32524;DHT22;18965;52.242;20.886;2022-10-16T18:28:57;18.40;72.80
32524;DHT22;18965;52.242;20.886;2022-10-16T18:31:27;18.30;72.70
32524;DHT22;18965;52.242;20.886;2022-10-16T18:33:53;18.30;72.80
32524;DHT22;18965;52.242;20.886;2022-10-16T18:36:29;18.30;72.90
32524;DHT22;18965;52.242;20.886;2022-10-16T18:38:58;18.20;73.00
32524;DHT22;18965;52.242;20.886;2022-10-16T18:41:26;18.20;73.10
32524;DHT22;18965;52.242;20.886;2022-10-16T18:43:52;18.10;73.10
32524;DHT22;18965;52.242;20.886;2022-10-16T18:46:23;18.10;73.20
32524;DHT22;18965;52.242;20.886;2022-10-16T18:48:49;18.10;73.40
32524;DHT22;18965;52.242;20.886;2022-10-16T18:51:33;18.00;73.50
32524;DHT22;18965;52.242;20.886;2022-10-16T18:54:02;18.00;73.70
32524;DHT22;18965;52.242;20.886;2022-10-16T18:56:30;18.00;73.70
32524;DHT22;18965;52.242;20.886;2022-10-16T18:58:58;17.90;73.80
32524;DHT22;18965;52.242;20.886;2022-10-16T19:01:26;17.90;73.90
32524;DHT22;18965;52.242;20.886;2022-10-16T19:03:55;17.80;74.00
32524;DHT22;18965;52.242;20.886;2022-10-16T19:06:25;17.80;74.10
32524;DHT22;18965;52.242;20.886;2022-10-16T19:08:55;17.80;74.20
32524;DHT22;18965;52.242;20.886;2022-10-16T19:11:22;17.70;74.20
32524;DHT22;18965;52.242;20.886;2022-10-16T19:13:54;17.70;74.20
32524;DHT22;18965;52.242;20.886;2022-10-16T19:16:25;17.60;74.30
32524;DHT22;18965;52.242;20.886;2022-10-16T19:18:53;17.60;74.50
32524;DHT22;18965;52.242;20.886;2022-10-16T19:21:23;17.50;74.50
32524;DHT22;18965;52.242;20.886;2022-10-16T19:23:55;17.40;74.60
32524;DHT22;18965;52.242;20.886;2022-10-16T19:26:22;17.40;74.80
32524;DHT22;18965;52.242;20.886;2022-10-16T19:28:48;17.40;74.90
32524;DHT22;18965;52.242;20.886;2022-10-16T19:31:18;17.30;74.90
32524;DHT22;18965;52.242;20.886;2022-10-16T19:33:50;17.30;75.00
32524;DHT22;18965;52.242;20.886;2022-10-16T19:36:19;17.20;75.10
32524;DHT22;18965;52.242;20.886;2022-10-16T19:38:46;17.20;75.10
32524;DHT22;18965;52.242;20.886;2022-10-16T19:41:15;17.10;75.20
32524;DHT22;18965;52.242;20.886;2022-10-16T19:43:42;17.10;75.30
32524;DHT22;18965;52.242;20.886;2022-10-16T19:46:11;17.10;76.20
32524;DHT22;18965;52.242;20.886;2022-10-16T19:48:37;17.10;75.70
32524;DHT22;18965;52.242;20.886;2022-10-16T19:51:05;17.00;75.80
32524;DHT22;18965;52.242;20.886;2022-10-16T19:53:32;17.00;75.90
32524;DHT22;18965;52.242;20.886;2022-10-16T19:55:58;17.00;76.00
32524;DHT22;18965;52.242;20.886;2022-10-16T19:58:25;16.90;76.00
32524;DHT22;18965;52.242;20.886;2022-10-16T20:00:51;16.90;76.20
32524;DHT22;18965;52.242;20.886;2022-10-16T20:03:17;16.80;76.20
32524;DHT22;18965;52.242;20.886;2022-10-16T20:05:53;16.80;76.30
32524;DHT22;18965;52.242;20.886;2022-10-16T20:08:20;16.80;76.50
32524;DHT22;18965;52.242;20.886;2022-10-16T20:10:51;16.70;76.50
32524;DHT22;18965;52.242;20.886;2022-10-16T20:13:18;16.70;76.70
32524;DHT22;18965;52.242;20.886;2022-10-16T20:15:44;16.70;76.70
32524;DHT22;18965;52.242;20.886;2022-10-16T20:18:10;16.70;76.90
32524;DHT22;18965;52.242;20.886;2022-10-16T20:20:41;16.60;76.90
32524;DHT22;18965;52.242;20.886;2022-10-16T20:23:07;16.60;76.90
32524;DHT22;18965;52.242;20.886;2022-10-16T20:25:37;16.60;77.10
32524;DHT22;18965;52.242;20.886;2022-10-16T20:28:04;16.50;77.10
32524;DHT22;18965;52.242;20.886;2022-10-16T20:30:39;16.50;77.20
32524;DHT22;18965;52.242;20.886;2022-10-16T20:33:05;16.50;77.40
32524;DHT22;18965;52.242;20.886;2022-10-16T20:35:44;16.40;77.30
32524;DHT22;18965;52.242;20.886;2022-10-16T20:38:12;16.40;77.40
32524;DHT22;18965;52.242;20.886;2022-10-16T20:40:40;16.40;77.50
32524;DHT22;18965;52.242;20.886;2022-10-16T20:43:09;16.40;77.50
32524;DHT22;18965;52.242;20.886;2022-10-16T20:45:36;16.30;77.50